createdAt,value
2017-09-08T00:01:41.754Z,63.70
2017-09-08T00:04:09.502Z,66.20
2017-09-08T00:06:37.284Z,66.90
2017-09-08T00:09:05.015Z,67.50
2017-09-08T00:11:32.737Z,67.60
2017-09-08T00:14:00.456Z,67.00
2017-09-08T00:16:28.193Z,68.30
2017-09-08T00:18:55.968Z,69.80
2017-09-08T00:21:23.689Z,69.80
2017-09-08T00:23:51.479Z,70.20
2017-09-08T00:26:19.202Z,70.10
2017-09-08T00:28:46.995Z,70.10
2017-09-08T00:31:14.732Z,70.40
2017-09-08T00:33:42.503Z,70.50
2017-09-08T00:36:10.269Z,69.90
2017-09-08T00:38:38.007Z,69.50
2017-09-08T00:41:05.772Z,69.50
2017-09-08T00:43:33.505Z,70.00
2017-09-08T00:46:01.224Z,70.40
2017-09-08T00:48:28.993Z,70.00
2017-09-08T00:50:56.756Z,70.10
2017-09-08T00:53:24.500Z,70.20
2017-09-08T00:55:52.212Z,70.20
2017-09-08T00:58:20.013Z,69.80
2017-09-08T01:00:47.766Z,69.90
2017-09-08T01:03:15.486Z,69.90
2017-09-08T01:05:43.217Z,70.00
2017-09-08T01:08:11.021Z,70.40
2017-09-08T01:10:38.738Z,71.90
2017-09-08T01:13:06.518Z,70.10
2017-09-08T01:15:34.312Z,70.30
2017-09-08T01:18:02.079Z,70.80
2017-09-08T01:20:29.839Z,70.50
2017-09-08T01:22:57.636Z,70.30
2017-09-08T01:25:25.344Z,69.70
2017-09-08T01:27:53.047Z,69.70
2017-09-08T01:30:20.824Z,69.70
2017-09-08T01:32:48.530Z,69.70
2017-09-08T01:35:17.019Z,70.70
2017-09-08T01:37:44.811Z,70.60
2017-09-08T01:40:12.605Z,71.60
2017-09-08T01:42:40.374Z,71.10
2017-09-08T01:45:08.111Z,71.20
2017-09-08T01:47:35.898Z,71.00
2017-09-08T01:50:03.673Z,71.70
2017-09-08T01:52:31.477Z,70.80
2017-09-08T01:54:59.192Z,69.90
2017-09-08T01:57:26.904Z,70.00
2017-09-08T01:59:54.619Z,69.80
2017-09-08T02:02:22.399Z,69.90
2017-09-08T02:04:50.431Z,69.90
2017-09-08T02:07:18.176Z,70.20
2017-09-08T02:09:46.672Z,71.00
2017-09-08T02:12:14.379Z,71.00
2017-09-08T02:14:42.578Z,70.10
2017-09-08T02:17:10.313Z,70.00
2017-09-08T02:19:38.041Z,70.20
2017-09-08T02:22:11.509Z,72.20
2017-09-08T02:24:39.278Z,72.00
2017-09-08T02:27:07.071Z,72.10
2017-09-08T02:29:35.601Z,72.00
2017-09-08T02:32:03.363Z,71.90
2017-09-08T02:34:31.819Z,72.40
2017-09-08T02:36:59.595Z,73.10
2017-09-08T02:39:27.388Z,73.30
2017-09-08T02:41:55.159Z,73.50
2017-09-08T02:44:23.035Z,73.00
2017-09-08T02:46:50.749Z,73.50
2017-09-08T02:49:19.395Z,73.40
2017-09-08T02:51:47.156Z,73.30
2017-09-08T02:54:14.947Z,73.40
2017-09-08T02:56:42.687Z,74.00
2017-09-08T02:59:10.455Z,74.30
2017-09-08T03:01:38.226Z,73.80
2017-09-08T03:04:05.997Z,73.70
2017-09-08T03:06:33.773Z,73.80
2017-09-08T03:09:01.498Z,74.50
2017-09-08T03:11:29.232Z,74.90
2017-09-08T03:13:57.005Z,74.50
2017-09-08T03:16:24.777Z,74.60
2017-09-08T03:18:52.514Z,74.50
2017-09-08T03:21:20.284Z,74.30
2017-09-08T03:23:48.100Z,74.10
2017-09-08T03:26:15.841Z,73.90
2017-09-08T03:28:43.617Z,73.90
2017-09-08T03:31:11.340Z,73.40
2017-09-08T03:33:39.094Z,74.50
2017-09-08T03:36:06.827Z,75.50
2017-09-08T03:38:34.569Z,75.50
2017-09-08T03:41:02.371Z,75.50
2017-09-08T03:43:30.083Z,75.00
2017-09-08T03:45:57.800Z,75.50
2017-09-08T03:48:25.540Z,75.60
2017-09-08T03:53:27.917Z,75.10
2017-09-08T03:55:55.635Z,75.20
2017-09-08T03:58:23.412Z,75.40
2017-09-08T04:00:51.143Z,74.90
2017-09-08T04:03:18.858Z,75.00
2017-09-08T04:05:46.660Z,75.30
2017-09-08T04:08:15.169Z,75.00
2017-09-08T04:10:42.895Z,75.00
2017-09-08T04:13:10.639Z,75.40
2017-09-08T04:15:38.453Z,75.50
2017-09-08T04:18:06.170Z,75.30
2017-09-08T04:20:33.897Z,75.40
2017-09-08T04:23:01.699Z,75.10
2017-09-08T04:25:29.428Z,75.80
2017-09-08T04:27:57.153Z,75.80
2017-09-08T04:30:25.032Z,74.90
2017-09-08T04:32:52.799Z,74.30
2017-09-08T04:35:20.915Z,74.70
2017-09-08T04:37:48.710Z,74.20
2017-09-08T04:40:16.440Z,74.60
2017-09-08T04:42:44.211Z,74.00
2017-09-08T04:45:12.020Z,74.00
2017-09-08T04:47:39.773Z,74.50
2017-09-08T04:50:07.491Z,75.00
2017-09-08T04:52:35.332Z,75.50
2017-09-08T04:55:03.125Z,76.10
2017-09-08T04:57:30.922Z,75.90
2017-09-08T04:59:58.655Z,75.20
2017-09-08T05:02:26.423Z,75.60
2017-09-08T05:04:54.309Z,75.90
2017-09-08T05:07:23.103Z,76.30
2017-09-08T05:09:50.816Z,75.70
2017-09-08T05:12:18.533Z,75.80
2017-09-08T05:14:46.307Z,75.30
2017-09-08T05:17:14.078Z,76.00
2017-09-08T05:19:41.871Z,76.20
2017-09-08T05:22:09.700Z,75.90
2017-09-08T05:24:37.426Z,76.30
2017-09-08T05:27:05.203Z,77.00
2017-09-08T05:29:32.953Z,77.30
2017-09-08T05:32:00.758Z,77.00
2017-09-08T05:34:28.572Z,77.40
2017-09-08T05:36:56.385Z,77.10
2017-09-08T05:39:24.238Z,77.10
2017-09-08T05:41:52.400Z,76.50
2017-09-08T05:44:20.122Z,76.40
2017-09-08T05:46:47.931Z,77.00
2017-09-08T05:49:15.712Z,76.90
2017-09-08T05:51:43.494Z,77.30
2017-09-08T05:54:11.271Z,76.60
2017-09-08T05:56:39.046Z,76.80
2017-09-08T05:59:06.944Z,76.30
2017-09-08T06:01:34.675Z,77.00
2017-09-08T06:04:02.462Z,77.30
2017-09-08T06:06:30.379Z,77.60
2017-09-08T06:08:58.288Z,78.60
2017-09-08T06:11:26.080Z,77.50
2017-09-08T06:13:53.807Z,77.70
2017-09-08T06:16:21.960Z,76.90
2017-09-08T06:18:50.498Z,76.30
2017-09-08T06:21:18.263Z,76.10
2017-09-08T06:23:46.071Z,74.70
2017-09-08T06:26:14.079Z,74.50
2017-09-08T06:28:42.813Z,76.10
2017-09-08T06:31:12.586Z,76.00
2017-09-08T06:33:40.413Z,76.90
2017-09-08T06:36:08.862Z,76.00
2017-09-08T06:38:36.677Z,75.60
2017-09-08T06:41:04.505Z,75.60
2017-09-08T06:43:32.242Z,74.70
2017-09-08T06:46:00.049Z,75.40
2017-09-08T06:48:27.814Z,74.60
2017-09-08T06:50:55.631Z,75.10
2017-09-08T06:53:24.511Z,73.00
2017-09-08T06:55:52.383Z,73.60
2017-09-08T06:58:20.154Z,73.40
2017-09-08T07:00:47.952Z,73.80
2017-09-08T07:03:15.840Z,74.10
2017-09-08T07:05:43.563Z,73.10
2017-09-08T07:08:11.322Z,72.90
2017-09-08T07:10:39.194Z,71.40
2017-09-08T07:13:06.930Z,71.70
2017-09-08T07:15:34.642Z,72.20
2017-09-08T07:18:02.375Z,72.70
2017-09-08T07:20:30.125Z,71.50
2017-09-08T07:22:57.917Z,72.30
2017-09-08T07:25:25.648Z,72.20
2017-09-08T07:27:53.424Z,72.00
2017-09-08T07:30:21.181Z,71.90
2017-09-08T07:32:49.020Z,73.00
2017-09-08T07:35:16.771Z,72.50
2017-09-08T07:37:44.682Z,73.50
2017-09-08T07:40:12.549Z,73.10
2017-09-08T07:42:40.387Z,73.40
2017-09-08T07:45:08.123Z,72.20
2017-09-08T07:47:36.223Z,71.40
2017-09-08T07:50:03.995Z,71.20
2017-09-08T07:52:31.805Z,70.60
2017-09-08T07:54:59.519Z,70.20
2017-09-08T07:57:27.396Z,70.20
2017-09-08T07:59:55.185Z,69.40
2017-09-08T08:02:22.928Z,69.20
2017-09-08T08:04:50.694Z,70.50
2017-09-08T08:07:18.479Z,71.30
2017-09-08T08:09:46.272Z,71.80
2017-09-08T08:12:13.993Z,71.00
2017-09-08T08:14:41.730Z,71.30
2017-09-08T08:17:09.518Z,71.60
2017-09-08T08:19:37.337Z,70.90
2017-09-08T08:22:05.396Z,71.40
2017-09-08T08:24:33.223Z,71.40
2017-09-08T08:27:01.045Z,71.30
2017-09-08T08:29:32.454Z,71.50
2017-09-08T08:32:28.018Z,69.70
2017-09-08T08:34:55.870Z,70.30
2017-09-08T08:37:23.672Z,70.10
2017-09-08T08:39:51.502Z,70.00
2017-09-08T08:42:19.317Z,69.60
2017-09-08T08:44:47.241Z,69.10
2017-09-08T08:47:14.994Z,69.10
2017-09-08T08:49:43.600Z,68.60
2017-09-08T08:52:11.442Z,68.60
2017-09-08T08:54:39.240Z,67.90
2017-09-08T08:57:07.043Z,67.40
2017-09-08T08:59:34.832Z,68.00
2017-09-08T09:02:02.626Z,68.50
2017-09-08T09:04:30.353Z,69.70
2017-09-08T09:06:58.138Z,70.60
2017-09-08T09:09:25.874Z,70.60
2017-09-08T09:11:53.609Z,69.50
2017-09-08T09:14:21.370Z,66.00
2017-09-08T09:16:49.097Z,65.80
2017-09-08T09:19:17.634Z,67.90
2017-09-08T09:21:45.363Z,67.70
2017-09-08T09:24:13.108Z,67.70
2017-09-08T09:26:40.829Z,67.50
2017-09-08T09:29:08.690Z,68.00
2017-09-08T09:31:36.495Z,66.60
2017-09-08T09:34:04.315Z,66.40
2017-09-08T09:36:32.177Z,66.90
2017-09-08T09:38:59.894Z,67.50
2017-09-08T09:41:27.676Z,68.70
2017-09-08T09:43:55.540Z,66.70
2017-09-08T09:46:23.327Z,64.50
2017-09-08T09:48:51.044Z,65.00
2017-09-08T09:51:18.777Z,64.80
2017-09-08T09:53:46.492Z,64.80
2017-09-08T09:56:14.223Z,65.90
2017-09-08T09:58:42.001Z,65.70
2017-09-08T10:01:09.729Z,66.00
2017-09-08T10:03:37.520Z,64.70
2017-09-08T10:06:05.344Z,64.60
2017-09-08T10:08:33.145Z,64.10
2017-09-08T10:11:00.859Z,63.30
2017-09-08T10:13:28.601Z,62.70
2017-09-08T10:15:56.319Z,62.00
2017-09-08T10:18:24.045Z,63.10
2017-09-08T10:20:51.925Z,63.00
2017-09-08T10:23:19.728Z,64.20
2017-09-08T10:25:48.286Z,64.10
2017-09-08T10:28:16.016Z,64.10
2017-09-08T10:30:43.846Z,63.50
2017-09-08T10:33:11.665Z,64.20
2017-09-08T10:35:39.370Z,60.70
2017-09-08T10:38:07.152Z,59.10
2017-09-08T10:40:34.873Z,59.80
2017-09-08T10:43:02.652Z,59.10
2017-09-08T10:45:30.358Z,59.80
2017-09-08T10:47:58.154Z,60.10
2017-09-08T10:50:25.938Z,59.80
2017-09-08T10:52:53.647Z,60.50
2017-09-08T10:55:21.466Z,61.00
2017-09-08T10:57:49.228Z,58.60
2017-09-08T11:00:16.994Z,60.90
2017-09-08T11:02:44.792Z,59.20
2017-09-08T11:05:12.518Z,60.50
2017-09-08T11:07:40.303Z,59.50
2017-09-08T11:10:08.035Z,57.40
2017-09-08T11:12:35.828Z,56.30
2017-09-08T11:15:03.593Z,55.90
2017-09-08T11:17:31.315Z,56.90
2017-09-08T11:19:59.088Z,57.30
2017-09-08T11:22:26.818Z,57.20
2017-09-08T11:24:54.633Z,57.80
2017-09-08T11:27:22.450Z,57.40
2017-09-08T11:29:50.180Z,56.10
2017-09-08T11:32:17.967Z,55.90
2017-09-08T11:34:51.361Z,57.00
2017-09-08T11:37:19.188Z,57.60
2017-09-08T11:39:47.707Z,56.90
2017-09-08T11:42:15.447Z,56.90
2017-09-08T11:44:43.265Z,55.90
2017-09-08T11:47:11.056Z,55.60
2017-09-08T11:49:38.819Z,54.20
2017-09-08T11:52:06.537Z,55.30
2017-09-08T11:54:34.267Z,56.80
2017-09-08T11:57:01.976Z,55.60
2017-09-08T11:59:29.734Z,57.40
2017-09-08T12:01:57.460Z,56.00
2017-09-08T12:04:25.954Z,56.70
2017-09-08T12:06:53.772Z,56.60
2017-09-08T12:09:21.542Z,57.60
2017-09-08T12:11:49.344Z,56.60
2017-09-08T12:14:17.214Z,56.20
2017-09-08T12:16:45.703Z,55.80
2017-09-08T12:19:13.472Z,55.70
2017-09-08T12:21:41.254Z,55.80
2017-09-08T12:24:09.050Z,55.00
2017-09-08T12:26:36.901Z,55.30
2017-09-08T12:29:04.661Z,54.80
2017-09-08T12:31:32.480Z,54.80
2017-09-08T12:34:00.280Z,55.00
2017-09-08T12:36:28.770Z,54.90
2017-09-08T12:38:56.481Z,54.90
2017-09-08T12:41:24.213Z,54.90
2017-09-08T12:43:51.969Z,55.00
2017-09-08T12:46:19.694Z,55.10
2017-09-08T12:48:47.402Z,54.40
2017-09-08T12:51:15.203Z,54.60
2017-09-08T12:53:42.919Z,54.80
2017-09-08T12:56:10.696Z,55.70
2017-09-08T12:58:38.481Z,54.80
2017-09-08T13:01:06.260Z,54.70
2017-09-08T13:03:33.972Z,54.30
2017-09-08T13:06:01.754Z,54.30
2017-09-08T13:08:29.523Z,54.80
2017-09-08T13:10:57.258Z,54.60
2017-09-08T13:13:25.069Z,53.70
2017-09-08T13:15:52.859Z,54.30
2017-09-08T13:18:20.638Z,54.50
2017-09-08T13:20:48.360Z,54.10
2017-09-08T13:23:16.119Z,54.00
2017-09-08T13:25:43.917Z,53.90
2017-09-08T13:28:11.730Z,53.70
2017-09-08T13:30:39.446Z,53.70
2017-09-08T13:33:07.220Z,53.20
2017-09-08T13:35:34.960Z,52.50
2017-09-08T13:38:02.672Z,52.40
2017-09-08T13:40:30.390Z,52.40
2017-09-08T13:42:58.144Z,52.60
2017-09-08T13:45:25.860Z,51.60
2017-09-08T13:47:53.585Z,52.40
2017-09-08T13:50:22.160Z,52.70
2017-09-08T13:52:49.877Z,52.60
2017-09-08T13:55:17.655Z,51.00
2017-09-08T13:57:45.390Z,51.70
2017-09-08T14:00:13.215Z,51.40
2017-09-08T14:02:40.948Z,51.80
2017-09-08T14:05:08.675Z,52.20
2017-09-08T14:07:37.179Z,53.40
2017-09-08T14:10:04.902Z,52.80
2017-09-08T14:12:32.753Z,53.00
2017-09-08T14:15:00.524Z,53.10
2017-09-08T14:17:28.323Z,52.60
2017-09-08T14:19:56.823Z,52.10
2017-09-08T14:22:24.600Z,52.00
2017-09-08T14:24:52.388Z,53.00
2017-09-08T14:27:20.168Z,54.00
2017-09-08T14:29:47.889Z,53.30
2017-09-08T14:32:15.613Z,53.00
2017-09-08T14:34:43.334Z,53.20
2017-09-08T14:37:11.039Z,53.40
2017-09-08T14:39:38.804Z,53.50
2017-09-08T14:42:06.610Z,53.30
2017-09-08T14:44:35.978Z,52.30
2017-09-08T14:47:03.831Z,52.30
2017-09-08T14:49:31.595Z,52.10
2017-09-08T14:51:59.317Z,51.90
2017-09-08T14:54:27.047Z,50.10
2017-09-08T14:56:54.760Z,51.40
2017-09-08T14:59:23.308Z,52.50
2017-09-08T15:01:51.107Z,52.40
2017-09-08T15:04:18.876Z,51.90
2017-09-08T15:06:46.666Z,51.90
2017-09-08T15:09:14.391Z,51.90
2017-09-08T15:11:42.164Z,51.60
2017-09-08T15:14:09.942Z,51.50
2017-09-08T15:16:37.668Z,51.00
2017-09-08T15:19:05.371Z,51.70
2017-09-08T15:21:33.172Z,52.00
2017-09-08T15:24:01.178Z,50.90
2017-09-08T15:26:28.925Z,51.50
2017-09-08T15:28:56.642Z,51.50
2017-09-08T15:31:25.229Z,52.00
2017-09-08T15:33:52.972Z,52.00
2017-09-08T15:36:21.161Z,51.80
2017-09-08T15:38:49.094Z,51.30
2017-09-08T15:41:17.607Z,51.50
2017-09-08T15:43:45.310Z,51.40
2017-09-08T15:46:13.030Z,51.20
2017-09-08T15:48:40.800Z,51.70
2017-09-08T15:51:08.571Z,51.70
2017-09-08T15:53:36.339Z,51.70
2017-09-08T15:56:04.120Z,51.80
2017-09-08T15:58:31.827Z,51.80
2017-09-08T16:00:59.616Z,51.80
2017-09-08T16:03:29.153Z,50.80
2017-09-08T16:05:56.937Z,50.70
2017-09-08T16:08:24.714Z,51.00
2017-09-08T16:10:52.504Z,50.70
2017-09-08T16:13:20.288Z,50.50
2017-09-08T16:15:48.004Z,50.00
2017-09-08T16:18:15.761Z,50.10
2017-09-08T16:20:43.477Z,49.80
2017-09-08T16:23:11.262Z,49.70
2017-09-08T16:25:39.085Z,49.60
2017-09-08T16:28:06.878Z,50.20
2017-09-08T16:30:34.633Z,50.30
2017-09-08T16:33:02.407Z,50.70
2017-09-08T16:35:30.126Z,51.10
2017-09-08T16:37:58.601Z,51.10
2017-09-08T16:40:26.331Z,51.40
2017-09-08T16:42:54.139Z,51.10
2017-09-08T16:45:21.877Z,51.00
2017-09-08T16:47:49.640Z,51.50
2017-09-08T16:50:17.353Z,51.10
2017-09-08T16:52:45.133Z,51.20
2017-09-08T16:55:12.887Z,51.20
2017-09-08T16:57:40.668Z,51.60
2017-09-08T17:00:08.384Z,51.80
2017-09-08T17:02:36.261Z,51.70
2017-09-08T17:05:04.038Z,52.00
2017-09-08T17:07:31.752Z,52.20
2017-09-08T17:09:59.634Z,52.00
2017-09-08T17:12:27.353Z,52.30
2017-09-08T17:14:55.971Z,52.30
2017-09-08T17:17:23.780Z,52.50
2017-09-08T17:19:51.567Z,52.60
2017-09-08T17:22:19.450Z,52.80
2017-09-08T17:24:47.275Z,52.90
2017-09-08T17:27:16.163Z,53.30
2017-09-08T17:29:45.267Z,53.20
2017-09-08T17:32:14.229Z,54.00
2017-09-08T17:34:42.781Z,53.70
2017-09-08T17:37:11.318Z,53.80
2017-09-08T17:39:39.233Z,53.90
2017-09-08T17:42:08.044Z,55.00
2017-09-08T17:44:37.028Z,55.80
2017-09-08T17:47:05.679Z,55.10
2017-09-08T17:49:43.248Z,55.20
2017-09-08T17:52:44.026Z,55.40
2017-09-08T17:56:16.843Z,55.50
2017-09-08T17:58:44.608Z,55.80
2017-09-08T18:01:13.189Z,55.30
2017-09-08T18:03:40.924Z,55.30
2017-09-08T18:06:08.812Z,55.40
2017-09-08T18:08:36.600Z,55.30
2017-09-08T18:11:05.296Z,55.90
2017-09-08T18:13:34.386Z,55.80
2017-09-08T18:16:02.215Z,55.40
2017-09-08T18:18:32.284Z,55.20
2017-09-08T18:21:01.718Z,54.60
2017-09-08T18:23:59.098Z,56.00
2017-09-08T18:26:54.404Z,54.30
2017-09-08T18:29:26.704Z,55.50
2017-09-08T18:32:03.234Z,54.80
2017-09-08T18:34:31.719Z,55.50
2017-09-08T18:36:59.899Z,55.30
2017-09-08T18:39:27.693Z,55.80
2017-09-08T18:41:55.953Z,54.10
2017-09-08T18:44:23.665Z,55.10
2017-09-08T18:46:55.758Z,55.20
2017-09-08T18:49:23.522Z,55.40
2017-09-08T18:51:51.389Z,53.80
2017-09-08T18:54:19.135Z,55.60
2017-09-08T18:56:46.889Z,56.00
2017-09-08T18:59:14.661Z,56.10
2017-09-08T19:01:42.391Z,55.80
2017-09-08T19:04:10.124Z,54.70
2017-09-08T19:06:38.729Z,54.40
2017-09-08T19:09:06.512Z,54.40
2017-09-08T19:11:34.273Z,56.60
2017-09-08T19:14:02.625Z,56.30
2017-09-08T19:16:32.327Z,57.10
2017-09-08T19:19:00.177Z,55.30
2017-09-08T19:21:27.917Z,55.50
2017-09-08T19:23:55.791Z,55.80
2017-09-08T19:26:23.640Z,56.20
2017-09-08T19:28:51.474Z,56.90
2017-09-08T19:31:19.665Z,55.80
2017-09-08T19:33:48.141Z,56.40
2017-09-08T19:36:15.850Z,56.70
2017-09-08T19:38:43.647Z,55.50
2017-09-08T19:41:11.357Z,56.20
2017-09-08T19:43:39.085Z,57.40
2017-09-08T19:46:06.831Z,56.30
2017-09-08T19:48:34.549Z,57.30
2017-09-08T19:51:02.301Z,56.50
2017-09-08T19:53:30.118Z,56.90
2017-09-08T19:55:57.846Z,57.60
2017-09-08T19:58:26.567Z,57.60
2017-09-08T20:00:54.454Z,57.80
2017-09-08T20:03:22.247Z,58.00
2017-09-08T20:05:50.077Z,57.80
2017-09-08T20:08:19.389Z,57.50
2017-09-08T20:10:47.296Z,56.90
2017-09-08T20:13:15.020Z,57.20
2017-09-08T20:15:42.783Z,57.80
2017-09-08T20:18:15.328Z,56.20
2017-09-08T20:20:43.086Z,56.30
2017-09-08T20:23:10.866Z,56.50
2017-09-08T20:25:38.983Z,56.80
2017-09-08T20:28:06.928Z,56.80
2017-09-08T20:30:34.710Z,56.00
2017-09-08T20:33:02.435Z,55.60
2017-09-08T20:35:30.158Z,55.60
2017-09-08T20:37:57.873Z,57.00
2017-09-08T20:40:25.587Z,57.10
2017-09-08T20:42:53.461Z,57.60
2017-09-08T20:45:21.224Z,56.90
2017-09-08T20:47:48.966Z,57.50
2017-09-08T20:50:16.688Z,57.60
2017-09-08T20:52:44.455Z,57.90
2017-09-08T20:55:12.230Z,58.60
2017-09-08T20:57:40.012Z,57.60
2017-09-08T21:00:07.737Z,57.20
2017-09-08T21:02:35.512Z,56.50
2017-09-08T21:05:03.312Z,56.20
2017-09-08T21:07:31.021Z,56.10
2017-09-08T21:09:58.739Z,55.90
2017-09-08T21:12:26.524Z,56.50
2017-09-08T21:14:54.288Z,57.90
2017-09-08T21:17:22.091Z,57.30
2017-09-08T21:19:49.840Z,57.50
2017-09-08T21:22:17.685Z,57.70
2017-09-08T21:24:48.200Z,57.50
2017-09-08T21:27:17.294Z,56.80
2017-09-08T21:29:46.639Z,57.40
2017-09-08T21:32:15.934Z,58.40
2017-09-08T21:34:45.223Z,58.30
2017-09-08T21:37:14.583Z,59.20
2017-09-08T21:39:45.080Z,57.70
2017-09-08T21:42:14.192Z,57.60
2017-09-08T21:44:43.090Z,57.20
2017-09-08T21:47:12.135Z,57.20
2017-09-08T21:49:41.128Z,57.80
2017-09-08T21:52:08.838Z,58.30
2017-09-08T21:57:10.502Z,59.10
2017-09-08T21:59:38.214Z,59.40
2017-09-08T22:02:06.698Z,58.90
2017-09-08T22:04:34.440Z,58.90
2017-09-08T22:07:02.217Z,58.40
2017-09-08T22:09:29.930Z,57.30
2017-09-08T22:11:57.647Z,58.40
2017-09-08T22:14:25.372Z,57.10
2017-09-08T22:16:53.088Z,57.60
2017-09-08T22:19:20.858Z,58.90
2017-09-08T22:21:48.563Z,58.90
2017-09-08T22:24:16.281Z,59.70
2017-09-08T22:26:44.009Z,60.40
2017-09-08T22:29:11.781Z,59.90
2017-09-08T22:31:39.508Z,61.20
2017-09-08T22:34:07.286Z,61.60
2017-09-08T22:36:35.060Z,62.10
2017-09-08T22:39:03.716Z,61.50
2017-09-08T22:41:32.304Z,60.10
2017-09-08T22:44:00.088Z,60.00
2017-09-08T22:46:27.811Z,60.50
2017-09-08T22:48:55.527Z,60.70
2017-09-08T22:51:23.303Z,60.70
2017-09-08T22:53:51.022Z,61.10
2017-09-08T22:56:18.775Z,60.00
2017-09-08T22:58:46.579Z,60.40
2017-09-08T23:01:14.306Z,61.70
2017-09-08T23:03:42.109Z,59.30
2017-09-08T23:06:10.995Z,59.80
2017-09-08T23:08:39.511Z,60.30
2017-09-08T23:11:07.226Z,60.20
2017-09-08T23:13:34.991Z,61.30
2017-09-08T23:16:02.781Z,60.70
2017-09-08T23:18:30.580Z,61.80
2017-09-08T23:20:58.284Z,59.70
2017-09-08T23:23:26.010Z,59.70
2017-09-08T23:25:53.719Z,61.30
2017-09-08T23:28:21.428Z,59.70
2017-09-08T23:30:49.215Z,60.10
2017-09-08T23:33:17.002Z,59.80
2017-09-08T23:35:44.774Z,60.90
2017-09-08T23:38:12.582Z,60.30
2017-09-08T23:40:40.290Z,61.00
2017-09-08T23:43:08.008Z,60.30
2017-09-08T23:45:35.827Z,60.00
2017-09-08T23:48:03.595Z,60.70
2017-09-08T23:50:31.359Z,62.90
2017-09-08T23:52:59.235Z,62.80
2017-09-08T23:55:26.956Z,63.20
2017-09-08T23:57:55.519Z,63.80
